sensor_id;sensor_type;location;lat;lon;timestamp;temperature;humidity
70682;SHT31;58261;48.228;11.686;2022-08-04T00:03:00;23.9;55
70682;SHT31;58261;48.228;11.686;2022-08-04T00:06:17;23.9;55
70682;SHT31;58261;48.228;11.686;2022-08-04T00:09:38;24.1;55
70682;SHT31;58261;48.228;11.686;2022-08-04T00:12:56;24.1;55
70682;SHT31;58261;48.228;11.686;2022-08-04T00:16:16;24.1;55
70682;SHT31;58261;48.228;11.686;2022-08-04T00:19:37;23.9;56
70682;SHT31;58261;48.228;11.686;2022-08-04T00:22:56;23.9;56
70682;SHT31;58261;48.228;11.686;2022-08-04T00:26:16;23.9;56
70682;SHT31;58261;48.228;11.686;2022-08-04T00:29:36;23.6;57
70682;SHT31;58261;48.228;11.686;2022-08-04T00:32:56;23.6;57
70682;SHT31;58261;48.228;11.686;2022-08-04T00:36:16;23.6;57
70682;SHT31;58261;48.228;11.686;2022-08-04T00:39:36;23.6;57
70682;SHT31;58261;48.228;11.686;2022-08-04T00:43:00;23.1;58
70682;SHT31;58261;48.228;11.686;2022-08-04T00:53:00;23.0;58
70682;SHT31;58261;48.228;11.686;2022-08-04T00:56:22;23.0;58
70682;SHT31;58261;48.228;11.686;2022-08-04T00:59:42;23.0;58
70682;SHT31;58261;48.228;11.686;2022-08-04T01:03:00;22.3;60
70682;SHT31;58261;48.228;11.686;2022-08-04T01:06:21;22.3;60
70682;SHT31;58261;48.228;11.686;2022-08-04T01:09:40;22.3;60
70682;SHT31;58261;48.228;11.686;2022-08-04T01:13:02;22.5;59
70682;SHT31;58261;48.228;11.686;2022-08-04T01:16:16;22.5;59
70682;SHT31;58261;48.228;11.686;2022-08-04T01:19:45;22.5;59
70682;SHT31;58261;48.228;11.686;2022-08-04T01:29:37;22.7;59
70682;SHT31;58261;48.228;11.686;2022-08-04T01:32:58;22.7;59
70682;SHT31;58261;48.228;11.686;2022-08-04T01:36:16;22.8;59
70682;SHT31;58261;48.228;11.686;2022-08-04T01:39:37;22.8;59
70682;SHT31;58261;48.228;11.686;2022-08-04T01:42:57;22.8;59
70682;SHT31;58261;48.228;11.686;2022-08-04T01:46:16;22.9;58
70682;SHT31;58261;48.228;11.686;2022-08-04T01:49:36;22.9;58
70682;SHT31;58261;48.228;11.686;2022-08-04T01:52:56;22.9;58
70682;SHT31;58261;48.228;11.686;2022-08-04T01:56:16;22.9;58
70682;SHT31;58261;48.228;11.686;2022-08-04T01:59:36;22.8;59
70682;SHT31;58261;48.228;11.686;2022-08-04T02:02:56;22.8;59
70682;SHT31;58261;48.228;11.686;2022-08-04T02:06:17;22.8;59
70682;SHT31;58261;48.228;11.686;2022-08-04T02:09:38;23.0;59
70682;SHT31;58261;48.228;11.686;2022-08-04T02:13:00;23.0;59
70682;SHT31;58261;48.228;11.686;2022-08-04T02:16:19;23.0;59
70682;SHT31;58261;48.228;11.686;2022-08-04T02:19:39;22.5;59
70682;SHT31;58261;48.228;11.686;2022-08-04T02:22:57;22.5;59
70682;SHT31;58261;48.228;11.686;2022-08-04T02:26:17;22.5;59
70682;SHT31;58261;48.228;11.686;2022-08-04T02:29:38;22.4;60
70682;SHT31;58261;48.228;11.686;2022-08-04T02:32:57;22.4;60
70682;SHT31;58261;48.228;11.686;2022-08-04T02:36:19;22.4;60
70682;SHT31;58261;48.228;11.686;2022-08-04T02:39:36;22.4;60
70682;SHT31;58261;48.228;11.686;2022-08-04T02:42:56;22.1;60
70682;SHT31;58261;48.228;11.686;2022-08-04T02:46:17;22.1;60
70682;SHT31;58261;48.228;11.686;2022-08-04T02:49:36;22.1;60
70682;SHT31;58261;48.228;11.686;2022-08-04T02:52:57;22.1;61
70682;SHT31;58261;48.228;11.686;2022-08-04T02:56:18;22.1;61
70682;SHT31;58261;48.228;11.686;2022-08-04T02:59:40;22.1;61
70682;SHT31;58261;48.228;11.686;2022-08-04T03:02:59;22.0;61
70682;SHT31;58261;48.228;11.686;2022-08-04T03:06:31;22.0;61
70682;SHT31;58261;48.228;11.686;2022-08-04T03:09:41;22.0;61
70682;SHT31;58261;48.228;11.686;2022-08-04T03:16:23;21.5;62
70682;SHT31;58261;48.228;11.686;2022-08-04T03:19:43;21.5;62
70682;SHT31;58261;48.228;11.686;2022-08-04T03:26:20;21.5;62
70682;SHT31;58261;48.228;11.686;2022-08-04T03:46:23;21.0;64
70682;SHT31;58261;48.228;11.686;2022-08-04T03:49:39;21.0;64
70682;SHT31;58261;48.228;11.686;2022-08-04T03:56:23;21.0;64
70682;SHT31;58261;48.228;11.686;2022-08-04T03:59:41;21.1;65
70682;SHT31;58261;48.228;11.686;2022-08-04T04:06:22;21.1;65
70682;SHT31;58261;48.228;11.686;2022-08-04T04:09:42;21.2;65
70682;SHT31;58261;48.228;11.686;2022-08-04T04:16:19;21.2;65
70682;SHT31;58261;48.228;11.686;2022-08-04T04:22:59;21.0;65
70682;SHT31;58261;48.228;11.686;2022-08-04T04:26:22;21.0;65
70682;SHT31;58261;48.228;11.686;2022-08-04T04:29:42;21.2;65
70682;SHT31;58261;48.228;11.686;2022-08-04T04:33:00;21.2;65
70682;SHT31;58261;48.228;11.686;2022-08-04T04:36:18;21.2;65
70682;SHT31;58261;48.228;11.686;2022-08-04T04:39:38;21.2;65
70682;SHT31;58261;48.228;11.686;2022-08-04T04:43:03;21.5;65
70682;SHT31;58261;48.228;11.686;2022-08-04T04:46:20;21.5;65
70682;SHT31;58261;48.228;11.686;2022-08-04T04:49:39;21.5;65
70682;SHT31;58261;48.228;11.686;2022-08-04T04:52:58;21.3;66
70682;SHT31;58261;48.228;11.686;2022-08-04T04:56:18;21.3;66
70682;SHT31;58261;48.228;11.686;2022-08-04T04:59:37;21.3;66
70682;SHT31;58261;48.228;11.686;2022-08-04T05:02:59;21.5;65
70682;SHT31;58261;48.228;11.686;2022-08-04T05:06:21;21.5;65
70682;SHT31;58261;48.228;11.686;2022-08-04T05:09:42;21.5;65
70682;SHT31;58261;48.228;11.686;2022-08-04T05:13:01;21.7;64
70682;SHT31;58261;48.228;11.686;2022-08-04T05:16:18;21.7;64
70682;SHT31;58261;48.228;11.686;2022-08-04T05:19:40;21.7;64
70682;SHT31;58261;48.228;11.686;2022-08-04T05:22:57;21.7;64
70682;SHT31;58261;48.228;11.686;2022-08-04T05:26:17;21.8;64
70682;SHT31;58261;48.228;11.686;2022-08-04T05:29:37;21.8;64
70682;SHT31;58261;48.228;11.686;2022-08-04T05:32:58;21.8;64
70682;SHT31;58261;48.228;11.686;2022-08-04T05:36:17;22.0;64
70682;SHT31;58261;48.228;11.686;2022-08-04T05:39:38;22.0;64
70682;SHT31;58261;48.228;11.686;2022-08-04T05:42:56;22.0;64
70682;SHT31;58261;48.228;11.686;2022-08-04T05:46:16;22.1;64
70682;SHT31;58261;48.228;11.686;2022-08-04T05:49:36;22.1;64
70682;SHT31;58261;48.228;11.686;2022-08-04T05:52:56;22.1;64
70682;SHT31;58261;48.228;11.686;2022-08-04T05:56:16;22.2;65
70682;SHT31;58261;48.228;11.686;2022-08-04T05:59:37;22.2;65
70682;SHT31;58261;48.228;11.686;2022-08-04T06:02:56;22.2;65
70682;SHT31;58261;48.228;11.686;2022-08-04T06:06:16;22.2;65
70682;SHT31;58261;48.228;11.686;2022-08-04T06:09:36;22.3;64
70682;SHT31;58261;48.228;11.686;2022-08-04T06:12:57;22.3;64
70682;SHT31;58261;48.228;11.686;2022-08-04T06:16:17;22.3;64
70682;SHT31;58261;48.228;11.686;2022-08-04T06:19:36;22.4;64
70682;SHT31;58261;48.228;11.686;2022-08-04T06:22:58;22.4;64
70682;SHT31;58261;48.228;11.686;2022-08-04T06:26:16;22.4;64
70682;SHT31;58261;48.228;11.686;2022-08-04T06:29:36;22.6;63
70682;SHT31;58261;48.228;11.686;2022-08-04T06:32:56;22.6;63
70682;SHT31;58261;48.228;11.686;2022-08-04T06:36:16;22.6;63
70682;SHT31;58261;48.228;11.686;2022-08-04T06:39:36;22.6;63
70682;SHT31;58261;48.228;11.686;2022-08-04T06:42:56;22.8;62
70682;SHT31;58261;48.228;11.686;2022-08-04T06:46:17;22.8;62
70682;SHT31;58261;48.228;11.686;2022-08-04T06:49:36;22.8;62
70682;SHT31;58261;48.228;11.686;2022-08-04T06:52:56;22.9;63
70682;SHT31;58261;48.228;11.686;2022-08-04T06:56:18;22.9;63
70682;SHT31;58261;48.228;11.686;2022-08-04T06:59:36;22.9;63
70682;SHT31;58261;48.228;11.686;2022-08-04T07:02:56;23.0;62
70682;SHT31;58261;48.228;11.686;2022-08-04T07:06:17;23.0;62
70682;SHT31;58261;48.228;11.686;2022-08-04T07:09:37;23.0;62
70682;SHT31;58261;48.228;11.686;2022-08-04T07:12:57;23.1;62
70682;SHT31;58261;48.228;11.686;2022-08-04T07:16:17;23.1;62
70682;SHT31;58261;48.228;11.686;2022-08-04T07:19:37;23.1;62
70682;SHT31;58261;48.228;11.686;2022-08-04T07:22:57;23.1;62
70682;SHT31;58261;48.228;11.686;2022-08-04T07:26:17;23.3;62
70682;SHT31;58261;48.228;11.686;2022-08-04T07:29:37;23.3;62
70682;SHT31;58261;48.228;11.686;2022-08-04T07:32:57;23.3;62
70682;SHT31;58261;48.228;11.686;2022-08-04T07:36:17;23.5;61
70682;SHT31;58261;48.228;11.686;2022-08-04T07:39:37;23.5;61
70682;SHT31;58261;48.228;11.686;2022-08-04T07:42:57;23.5;61
70682;SHT31;58261;48.228;11.686;2022-08-04T07:46:17;23.6;61
70682;SHT31;58261;48.228;11.686;2022-08-04T07:49:37;23.6;61
70682;SHT31;58261;48.228;11.686;2022-08-04T07:52:57;23.6;61
70682;SHT31;58261;48.228;11.686;2022-08-04T07:56:17;23.8;60
70682;SHT31;58261;48.228;11.686;2022-08-04T07:59:37;23.8;60
70682;SHT31;58261;48.228;11.686;2022-08-04T08:02:57;23.8;60
70682;SHT31;58261;48.228;11.686;2022-08-04T08:06:17;23.8;60
70682;SHT31;58261;48.228;11.686;2022-08-04T08:09:37;23.9;60
70682;SHT31;58261;48.228;11.686;2022-08-04T08:12:57;23.9;60
70682;SHT31;58261;48.228;11.686;2022-08-04T08:16:17;23.9;60
70682;SHT31;58261;48.228;11.686;2022-08-04T08:19:37;24.0;60
70682;SHT31;58261;48.228;11.686;2022-08-04T08:22:57;24.0;60
70682;SHT31;58261;48.228;11.686;2022-08-04T08:26:17;24.0;60
70682;SHT31;58261;48.228;11.686;2022-08-04T08:29:37;24.2;58
70682;SHT31;58261;48.228;11.686;2022-08-04T08:32:57;24.2;58
70682;SHT31;58261;48.228;11.686;2022-08-04T08:36:18;24.2;58
70682;SHT31;58261;48.228;11.686;2022-08-04T08:39:37;24.2;58
70682;SHT31;58261;48.228;11.686;2022-08-04T08:43:02;24.4;59
70682;SHT31;58261;48.228;11.686;2022-08-04T08:53:00;24.6;59
70682;SHT31;58261;48.228;11.686;2022-08-04T08:56:21;24.6;59
70682;SHT31;58261;48.228;11.686;2022-08-04T08:59:40;24.6;59
70682;SHT31;58261;48.228;11.686;2022-08-04T09:03:04;24.7;57
70682;SHT31;58261;48.228;11.686;2022-08-04T09:06:25;24.7;57
70682;SHT31;58261;48.228;11.686;2022-08-04T09:12:58;24.9;58
70682;SHT31;58261;48.228;11.686;2022-08-04T09:16:18;24.9;58
70682;SHT31;58261;48.228;11.686;2022-08-04T09:19:38;24.9;58
70682;SHT31;58261;48.228;11.686;2022-08-04T09:22:59;24.9;58
70682;SHT31;58261;48.228;11.686;2022-08-04T09:26:18;25.1;57
70682;SHT31;58261;48.228;11.686;2022-08-04T09:29:39;25.1;57
70682;SHT31;58261;48.228;11.686;2022-08-04T09:33:03;25.1;57
70682;SHT31;58261;48.228;11.686;2022-08-04T09:36:20;25.2;56
70682;SHT31;58261;48.228;11.686;2022-08-04T09:39:39;25.2;56
70682;SHT31;58261;48.228;11.686;2022-08-04T09:43:00;25.2;56
70682;SHT31;58261;48.228;11.686;2022-08-04T09:46:19;25.5;58
70682;SHT31;58261;48.228;11.686;2022-08-04T09:49:39;25.5;58
70682;SHT31;58261;48.228;11.686;2022-08-04T09:53:00;25.5;58
70682;SHT31;58261;48.228;11.686;2022-08-04T09:56:19;25.6;57
70682;SHT31;58261;48.228;11.686;2022-08-04T09:59:40;25.6;57
70682;SHT31;58261;48.228;11.686;2022-08-04T10:02:57;25.6;57
70682;SHT31;58261;48.228;11.686;2022-08-04T10:06:27;25.6;57
70682;SHT31;58261;48.228;11.686;2022-08-04T10:09:42;25.8;57
70682;SHT31;58261;48.228;11.686;2022-08-04T10:13:04;25.8;57
70682;SHT31;58261;48.228;11.686;2022-08-04T10:16:21;25.8;57
70682;SHT31;58261;48.228;11.686;2022-08-04T10:19:37;26.0;56
70682;SHT31;58261;48.228;11.686;2022-08-04T10:23:00;26.0;56
70682;SHT31;58261;48.228;11.686;2022-08-04T10:26:21;26.0;56
70682;SHT31;58261;48.228;11.686;2022-08-04T10:29:39;26.1;55
70682;SHT31;58261;48.228;11.686;2022-08-04T10:32:59;26.1;55
70682;SHT31;58261;48.228;11.686;2022-08-04T10:36:18;26.1;55
70682;SHT31;58261;48.228;11.686;2022-08-04T10:39:39;26.1;55
70682;SHT31;58261;48.228;11.686;2022-08-04T10:42:58;26.4;53
70682;SHT31;58261;48.228;11.686;2022-08-04T10:46:18;26.4;53
70682;SHT31;58261;48.228;11.686;2022-08-04T10:49:42;26.4;53
70682;SHT31;58261;48.228;11.686;2022-08-04T10:53:00;26.4;53
70682;SHT31;58261;48.228;11.686;2022-08-04T10:56:18;26.4;53
70682;SHT31;58261;48.228;11.686;2022-08-04T10:59:38;26.4;53
70682;SHT31;58261;48.228;11.686;2022-08-04T11:02:58;26.7;49
70682;SHT31;58261;48.228;11.686;2022-08-04T11:06:17;26.7;49
70682;SHT31;58261;48.228;11.686;2022-08-04T11:09:37;26.7;49
70682;SHT31;58261;48.228;11.686;2022-08-04T11:12:58;26.8;51
70682;SHT31;58261;48.228;11.686;2022-08-04T11:16:18;26.8;51
70682;SHT31;58261;48.228;11.686;2022-08-04T11:19:38;26.8;51
70682;SHT31;58261;48.228;11.686;2022-08-04T11:23:01;26.8;51
70682;SHT31;58261;48.228;11.686;2022-08-04T11:26:18;26.9;51
70682;SHT31;58261;48.228;11.686;2022-08-04T11:29:39;26.9;51
70682;SHT31;58261;48.228;11.686;2022-08-04T11:33:04;26.9;51
70682;SHT31;58261;48.228;11.686;2022-08-04T11:36:19;27.2;50
70682;SHT31;58261;48.228;11.686;2022-08-04T11:39:41;27.2;50
70682;SHT31;58261;48.228;11.686;2022-08-04T11:42:59;27.2;50
70682;SHT31;58261;48.228;11.686;2022-08-04T11:46:20;27.6;48
70682;SHT31;58261;48.228;11.686;2022-08-04T11:49:39;27.6;48
70682;SHT31;58261;48.228;11.686;2022-08-04T11:52:57;27.6;48
70682;SHT31;58261;48.228;11.686;2022-08-04T11:56:17;27.7;48
70682;SHT31;58261;48.228;11.686;2022-08-04T11:59:37;27.7;48
70682;SHT31;58261;48.228;11.686;2022-08-04T12:03:05;27.7;48
70682;SHT31;58261;48.228;11.686;2022-08-04T12:06:18;27.7;48
70682;SHT31;58261;48.228;11.686;2022-08-04T12:09:38;27.7;48
70682;SHT31;58261;48.228;11.686;2022-08-04T12:12:59;27.7;48
70682;SHT31;58261;48.228;11.686;2022-08-04T12:16:19;27.7;48
70682;SHT31;58261;48.228;11.686;2022-08-04T12:19:38;27.8;48
70682;SHT31;58261;48.228;11.686;2022-08-04T12:22:57;27.8;48
70682;SHT31;58261;48.228;11.686;2022-08-04T12:26:20;27.8;48
70682;SHT31;58261;48.228;11.686;2022-08-04T12:29:38;27.9;47
70682;SHT31;58261;48.228;11.686;2022-08-04T12:32:58;27.9;47
70682;SHT31;58261;48.228;11.686;2022-08-04T12:36:19;27.9;47
70682;SHT31;58261;48.228;11.686;2022-08-04T12:39:37;27.9;47
70682;SHT31;58261;48.228;11.686;2022-08-04T12:43:00;28.6;43
70682;SHT31;58261;48.228;11.686;2022-08-04T12:46:19;28.6;43
70682;SHT31;58261;48.228;11.686;2022-08-04T12:49:38;28.6;43
70682;SHT31;58261;48.228;11.686;2022-08-04T12:52:57;28.4;46
70682;SHT31;58261;48.228;11.686;2022-08-04T12:56:22;28.4;46
70682;SHT31;58261;48.228;11.686;2022-08-04T12:59:37;28.4;46
70682;SHT31;58261;48.228;11.686;2022-08-04T13:02:57;28.5;46
70682;SHT31;58261;48.228;11.686;2022-08-04T13:06:22;28.5;46
70682;SHT31;58261;48.228;11.686;2022-08-04T13:09:37;28.5;46
70682;SHT31;58261;48.228;11.686;2022-08-04T13:12:58;28.6;45
70682;SHT31;58261;48.228;11.686;2022-08-04T13:16:17;28.6;45
70682;SHT31;58261;48.228;11.686;2022-08-04T13:19:37;28.6;45
70682;SHT31;58261;48.228;11.686;2022-08-04T13:22:58;28.6;45
70682;SHT31;58261;48.228;11.686;2022-08-04T13:26:17;28.7;45
70682;SHT31;58261;48.228;11.686;2022-08-04T13:29:38;28.7;45
70682;SHT31;58261;48.228;11.686;2022-08-04T13:33:00;28.7;45
70682;SHT31;58261;48.228;11.686;2022-08-04T13:36:17;28.9;44
70682;SHT31;58261;48.228;11.686;2022-08-04T13:39:37;28.9;44
70682;SHT31;58261;48.228;11.686;2022-08-04T13:42:57;28.9;44
70682;SHT31;58261;48.228;11.686;2022-08-04T13:46:18;29.0;43
70682;SHT31;58261;48.228;11.686;2022-08-04T13:49:37;29.0;43
70682;SHT31;58261;48.228;11.686;2022-08-04T13:52:58;29.0;43
70682;SHT31;58261;48.228;11.686;2022-08-04T13:56:17;29.2;43
70682;SHT31;58261;48.228;11.686;2022-08-04T13:59:37;29.2;43
70682;SHT31;58261;48.228;11.686;2022-08-04T14:02:58;29.2;43
70682;SHT31;58261;48.228;11.686;2022-08-04T14:06:19;29.2;43
70682;SHT31;58261;48.228;11.686;2022-08-04T14:09:38;29.2;43
70682;SHT31;58261;48.228;11.686;2022-08-04T14:12:57;29.2;43
70682;SHT31;58261;48.228;11.686;2022-08-04T14:16:18;29.2;43
70682;SHT31;58261;48.228;11.686;2022-08-04T14:22:57;29.5;42
70682;SHT31;58261;48.228;11.686;2022-08-04T14:26:19;29.5;42
70682;SHT31;58261;48.228;11.686;2022-08-04T14:29:37;29.7;41
70682;SHT31;58261;48.228;11.686;2022-08-04T14:32:59;29.7;41
70682;SHT31;58261;48.228;11.686;2022-08-04T14:36:18;29.7;41
70682;SHT31;58261;48.228;11.686;2022-08-04T14:39:38;29.7;41
70682;SHT31;58261;48.228;11.686;2022-08-04T14:42:58;29.8;41
70682;SHT31;58261;48.228;11.686;2022-08-04T14:46:17;29.8;41
70682;SHT31;58261;48.228;11.686;2022-08-04T14:49:37;29.8;41
70682;SHT31;58261;48.228;11.686;2022-08-04T14:53:01;30.0;40
70682;SHT31;58261;48.228;11.686;2022-08-04T14:56:17;30.0;40
70682;SHT31;58261;48.228;11.686;2022-08-04T14:59:39;30.0;40
70682;SHT31;58261;48.228;11.686;2022-08-04T15:02:59;30.2;39
70682;SHT31;58261;48.228;11.686;2022-08-04T15:06:17;30.2;39
70682;SHT31;58261;48.228;11.686;2022-08-04T15:09:37;30.2;39
70682;SHT31;58261;48.228;11.686;2022-08-04T15:12:57;30.4;40
70682;SHT31;58261;48.228;11.686;2022-08-04T15:16:17;30.4;40
70682;SHT31;58261;48.228;11.686;2022-08-04T15:19:37;30.4;40
70682;SHT31;58261;48.228;11.686;2022-08-04T15:22:57;30.4;40
70682;SHT31;58261;48.228;11.686;2022-08-04T15:26:21;30.6;41
70682;SHT31;58261;48.228;11.686;2022-08-04T15:29:39;30.6;41
70682;SHT31;58261;48.228;11.686;2022-08-04T15:32:59;30.6;41
70682;SHT31;58261;48.228;11.686;2022-08-04T15:36:20;30.8;39
70682;SHT31;58261;48.228;11.686;2022-08-04T15:39:42;30.8;39
70682;SHT31;58261;48.228;11.686;2022-08-04T15:43:00;30.8;39
70682;SHT31;58261;48.228;11.686;2022-08-04T15:46:18;31.1;39
70682;SHT31;58261;48.228;11.686;2022-08-04T15:49:37;31.1;39
70682;SHT31;58261;48.228;11.686;2022-08-04T15:52:58;31.1;39
70682;SHT31;58261;48.228;11.686;2022-08-04T16:02:57;31.3;39
70682;SHT31;58261;48.228;11.686;2022-08-04T16:09:37;31.5;39
70682;SHT31;58261;48.228;11.686;2022-08-04T16:12:58;31.5;39
70682;SHT31;58261;48.228;11.686;2022-08-04T16:19:51;31.6;38
70682;SHT31;58261;48.228;11.686;2022-08-04T16:22:59;31.6;38
70682;SHT31;58261;48.228;11.686;2022-08-04T16:29:38;31.8;37
70682;SHT31;58261;48.228;11.686;2022-08-04T16:32:57;31.8;37
70682;SHT31;58261;48.228;11.686;2022-08-04T16:36:21;31.8;37
70682;SHT31;58261;48.228;11.686;2022-08-04T16:39:38;31.8;37
70682;SHT31;58261;48.228;11.686;2022-08-04T16:42:58;31.8;39
70682;SHT31;58261;48.228;11.686;2022-08-04T16:49:37;31.8;39
70682;SHT31;58261;48.228;11.686;2022-08-04T16:52:57;31.8;39
70682;SHT31;58261;48.228;11.686;2022-08-04T16:56:17;31.8;39
70682;SHT31;58261;48.228;11.686;2022-08-04T16:59:37;31.8;39
70682;SHT31;58261;48.228;11.686;2022-08-04T17:03:00;31.7;39
70682;SHT31;58261;48.228;11.686;2022-08-04T17:06:17;31.7;39
70682;SHT31;58261;48.228;11.686;2022-08-04T17:09:47;31.7;39
70682;SHT31;58261;48.228;11.686;2022-08-04T17:12:58;31.6;38
70682;SHT31;58261;48.228;11.686;2022-08-04T17:16:17;31.6;38
70682;SHT31;58261;48.228;11.686;2022-08-04T17:19:37;31.6;38
70682;SHT31;58261;48.228;11.686;2022-08-04T17:26:18;31.5;40
70682;SHT31;58261;48.228;11.686;2022-08-04T17:29:38;31.5;40
70682;SHT31;58261;48.228;11.686;2022-08-04T17:32:58;31.5;40
70682;SHT31;58261;48.228;11.686;2022-08-04T17:36:21;31.4;41
70682;SHT31;58261;48.228;11.686;2022-08-04T17:39:38;31.4;41
70682;SHT31;58261;48.228;11.686;2022-08-04T17:43:01;31.4;41
70682;SHT31;58261;48.228;11.686;2022-08-04T17:46:20;31.4;41
70682;SHT31;58261;48.228;11.686;2022-08-04T17:49:38;31.4;41
70682;SHT31;58261;48.228;11.686;2022-08-04T17:52:58;31.4;41
70682;SHT31;58261;48.228;11.686;2022-08-04T17:59:39;31.3;44
70682;SHT31;58261;48.228;11.686;2022-08-04T18:02:58;31.3;44
70682;SHT31;58261;48.228;11.686;2022-08-04T18:06:18;31.3;44
70682;SHT31;58261;48.228;11.686;2022-08-04T18:09:38;31.1;45
70682;SHT31;58261;48.228;11.686;2022-08-04T18:16:18;31.1;45
70682;SHT31;58261;48.228;11.686;2022-08-04T18:19:38;31.0;46
70682;SHT31;58261;48.228;11.686;2022-08-04T18:22:58;31.0;46
70682;SHT31;58261;48.228;11.686;2022-08-04T18:26:18;31.0;46
70682;SHT31;58261;48.228;11.686;2022-08-04T18:29:38;30.8;45
70682;SHT31;58261;48.228;11.686;2022-08-04T18:32:58;30.8;45
70682;SHT31;58261;48.228;11.686;2022-08-04T18:36:18;30.8;45
70682;SHT31;58261;48.228;11.686;2022-08-04T18:39:38;30.8;45
70682;SHT31;58261;48.228;11.686;2022-08-04T18:42:58;30.6;46
70682;SHT31;58261;48.228;11.686;2022-08-04T18:46:18;30.6;46
70682;SHT31;58261;48.228;11.686;2022-08-04T18:49:38;30.6;46
70682;SHT31;58261;48.228;11.686;2022-08-04T18:52:58;30.3;47
70682;SHT31;58261;48.228;11.686;2022-08-04T18:56:18;30.3;47
70682;SHT31;58261;48.228;11.686;2022-08-04T18:59:38;30.3;47
70682;SHT31;58261;48.228;11.686;2022-08-04T19:02:58;30.1;47
70682;SHT31;58261;48.228;11.686;2022-08-04T19:06:18;30.1;47
70682;SHT31;58261;48.228;11.686;2022-08-04T19:09:38;30.1;47
70682;SHT31;58261;48.228;11.686;2022-08-04T19:12:58;30.1;47
70682;SHT31;58261;48.228;11.686;2022-08-04T19:16:18;29.8;46
70682;SHT31;58261;48.228;11.686;2022-08-04T19:19:38;29.8;46
70682;SHT31;58261;48.228;11.686;2022-08-04T19:22:58;29.8;46
70682;SHT31;58261;48.228;11.686;2022-08-04T19:26:18;29.7;46
70682;SHT31;58261;48.228;11.686;2022-08-04T19:29:38;29.7;46
70682;SHT31;58261;48.228;11.686;2022-08-04T19:32:58;29.7;46
70682;SHT31;58261;48.228;11.686;2022-08-04T19:36:18;29.5;45
70682;SHT31;58261;48.228;11.686;2022-08-04T19:39:38;29.5;45
70682;SHT31;58261;48.228;11.686;2022-08-04T19:42:58;29.5;45
70682;SHT31;58261;48.228;11.686;2022-08-04T19:46:18;29.2;47
70682;SHT31;58261;48.228;11.686;2022-08-04T19:49:38;29.2;47
70682;SHT31;58261;48.228;11.686;2022-08-04T19:52:58;29.2;47
70682;SHT31;58261;48.228;11.686;2022-08-04T19:56:18;29.2;47
70682;SHT31;58261;48.228;11.686;2022-08-04T19:59:38;29.0;48
70682;SHT31;58261;48.228;11.686;2022-08-04T20:02:58;29.0;48
70682;SHT31;58261;48.228;11.686;2022-08-04T20:06:18;29.0;48
70682;SHT31;58261;48.228;11.686;2022-08-04T20:09:38;28.9;48
70682;SHT31;58261;48.228;11.686;2022-08-04T20:12:58;28.9;48
70682;SHT31;58261;48.228;11.686;2022-08-04T20:16:18;28.9;48
70682;SHT31;58261;48.228;11.686;2022-08-04T20:19:38;28.8;49
70682;SHT31;58261;48.228;11.686;2022-08-04T20:22:58;28.8;49
70682;SHT31;58261;48.228;11.686;2022-08-04T20:26:19;28.8;49
70682;SHT31;58261;48.228;11.686;2022-08-04T20:29:39;28.8;49
70682;SHT31;58261;48.228;11.686;2022-08-04T20:32:58;28.5;49
70682;SHT31;58261;48.228;11.686;2022-08-04T20:36:18;28.5;49
70682;SHT31;58261;48.228;11.686;2022-08-04T20:39:38;28.5;49
70682;SHT31;58261;48.228;11.686;2022-08-04T20:42:58;28.3;49
70682;SHT31;58261;48.228;11.686;2022-08-04T20:46:18;28.3;49
70682;SHT31;58261;48.228;11.686;2022-08-04T20:49:38;28.3;49
70682;SHT31;58261;48.228;11.686;2022-08-04T20:52:58;28.2;52
70682;SHT31;58261;48.228;11.686;2022-08-04T20:56:18;28.2;52
70682;SHT31;58261;48.228;11.686;2022-08-04T20:59:38;28.2;52
70682;SHT31;58261;48.228;11.686;2022-08-04T21:02:58;28.2;50
70682;SHT31;58261;48.228;11.686;2022-08-04T21:06:18;28.2;50
70682;SHT31;58261;48.228;11.686;2022-08-04T21:09:39;28.2;50
70682;SHT31;58261;48.228;11.686;2022-08-04T21:12:58;28.2;50
70682;SHT31;58261;48.228;11.686;2022-08-04T21:16:18;28.1;51
70682;SHT31;58261;48.228;11.686;2022-08-04T21:19:38;28.1;51
70682;SHT31;58261;48.228;11.686;2022-08-04T21:22:58;28.1;51
70682;SHT31;58261;48.228;11.686;2022-08-04T21:26:20;28.1;52
70682;SHT31;58261;48.228;11.686;2022-08-04T21:29:38;28.1;52
70682;SHT31;58261;48.228;11.686;2022-08-04T21:32:58;28.1;52
70682;SHT31;58261;48.228;11.686;2022-08-04T21:36:18;27.9;51
70682;SHT31;58261;48.228;11.686;2022-08-04T21:39:38;27.9;51
70682;SHT31;58261;48.228;11.686;2022-08-04T21:42:58;27.9;51
70682;SHT31;58261;48.228;11.686;2022-08-04T21:46:18;27.3;53
70682;SHT31;58261;48.228;11.686;2022-08-04T21:49:38;27.3;53
70682;SHT31;58261;48.228;11.686;2022-08-04T21:52:58;27.3;53
70682;SHT31;58261;48.228;11.686;2022-08-04T21:56:18;27.3;53
70682;SHT31;58261;48.228;11.686;2022-08-04T21:59:36;27.3;54
70682;SHT31;58261;48.228;11.686;2022-08-04T22:02:56;27.3;54
70682;SHT31;58261;48.228;11.686;2022-08-04T22:06:16;27.3;54
70682;SHT31;58261;48.228;11.686;2022-08-04T22:09:36;27.3;53
70682;SHT31;58261;48.228;11.686;2022-08-04T22:12:56;27.3;53
70682;SHT31;58261;48.228;11.686;2022-08-04T22:16:16;27.3;53
70682;SHT31;58261;48.228;11.686;2022-08-04T22:19:36;27.3;53
70682;SHT31;58261;48.228;11.686;2022-08-04T22:22:56;27.3;53
70682;SHT31;58261;48.228;11.686;2022-08-04T22:26:16;27.3;53
70682;SHT31;58261;48.228;11.686;2022-08-04T22:29:36;27.3;53
70682;SHT31;58261;48.228;11.686;2022-08-04T22:32:56;27.3;52
70682;SHT31;58261;48.228;11.686;2022-08-04T22:36:16;27.3;52
70682;SHT31;58261;48.228;11.686;2022-08-04T22:39:36;27.3;52
70682;SHT31;58261;48.228;11.686;2022-08-04T22:42:56;27.3;51
70682;SHT31;58261;48.228;11.686;2022-08-04T22:46:19;27.3;51
70682;SHT31;58261;48.228;11.686;2022-08-04T22:49:36;27.3;51
70682;SHT31;58261;48.228;11.686;2022-08-04T22:52:56;27.1;51
70682;SHT31;58261;48.228;11.686;2022-08-04T22:56:16;27.1;51
70682;SHT31;58261;48.228;11.686;2022-08-04T22:59:36;27.1;51
70682;SHT31;58261;48.228;11.686;2022-08-04T23:02:56;26.6;53
70682;SHT31;58261;48.228;11.686;2022-08-04T23:06:16;26.6;53
70682;SHT31;58261;48.228;11.686;2022-08-04T23:09:36;26.6;53
70682;SHT31;58261;48.228;11.686;2022-08-04T23:12:56;26.6;53
70682;SHT31;58261;48.228;11.686;2022-08-04T23:16:16;26.4;54
70682;SHT31;58261;48.228;11.686;2022-08-04T23:19:36;26.4;54
70682;SHT31;58261;48.228;11.686;2022-08-04T23:22:56;26.4;54
70682;SHT31;58261;48.228;11.686;2022-08-04T23:26:16;26.3;55
70682;SHT31;58261;48.228;11.686;2022-08-04T23:29:36;26.3;55
70682;SHT31;58261;48.228;11.686;2022-08-04T23:32:56;26.3;55
70682;SHT31;58261;48.228;11.686;2022-08-04T23:36:16;26.3;54
70682;SHT31;58261;48.228;11.686;2022-08-04T23:39:36;26.3;54